Time;durP1;ratioP1;P1;durP2;ratioP2;P2;SDS_P1;SDS_P2;PMS_P1;PMS_P2;Temp;Humidity;BMP_temperature;BMP_pressure;BME280_temperature;BME280_humidity;BME280_pressure;Samples;Min_cycle;Max_cycle;Signal;HPM_P1;HPM_P2
2022/09/28 00:01:28;;;;;;;30.55;8.80;;;5.30;99.90;;;;;;5046968;28;20045;-46
2022/09/28 00:03:58;;;;;;;17.65;7.47;;;5.10;99.90;;;;;;5046336;28;20060;-46
2022/09/28 00:06:26;;;;;;;17.48;8.88;;;5.20;99.90;;;;;;5046956;28;20037;-46
2022/09/28 00:08:52;;;;;;;17.65;8.18;;;5.30;99.90;;;;;;5047028;28;20053;-47
2022/09/28 00:11:20;;;;;;;19.33;9.10;;;5.50;99.90;;;;;;5046487;28;20114;-46
2022/09/28 00:13:51;;;;;;;18.65;8.50;;;5.30;99.90;;;;;;5047321;28;20052;-47
2022/09/28 00:16:20;;;;;;;25.90;9.85;;;5.40;99.90;;;;;;5046917;28;20167;-47
2022/09/28 00:18:46;;;;;;;18.25;8.45;;;5.20;99.90;;;;;;5046400;28;20187;-45
2022/09/28 00:21:14;;;;;;;14.45;8.23;;;5.30;99.90;;;;;;5046158;28;20127;-47
2022/09/28 00:26:27;;;;;;;21.00;10.82;;;5.40;99.90;;;;;;5046750;28;20059;-46
2022/09/28 00:28:56;;;;;;;19.00;9.00;;;5.50;99.90;;;;;;5046548;28;20474;-45
2022/09/28 00:31:23;;;;;;;22.83;10.63;;;5.70;99.90;;;;;;5045967;28;20048;-49
2022/09/28 00:33:55;;;;;;;18.33;9.55;;;5.60;99.90;;;;;;5047043;28;20094;-52
2022/09/28 00:36:28;;;;;;;19.00;9.27;;;5.40;99.90;;;;;;5047143;28;20075;-49
2022/09/28 00:38:57;;;;;;;20.08;10.15;;;5.50;99.90;;;;;;5047072;28;20475;-53
2022/09/28 00:41:25;;;;;;;20.13;9.52;;;5.50;99.90;;;;;;5046540;28;20045;-45
2022/09/28 00:43:51;;;;;;;18.05;8.38;;;5.40;99.90;;;;;;5046219;28;20028;-47
2022/09/28 00:46:32;;;;;;;11.65;6.90;;;5.40;99.90;;;;;;5046764;28;20078;-47
2022/09/28 00:49:06;;;;;;;14.80;6.82;;;5.30;99.90;;;;;;5046525;28;20076;-46
2022/09/28 00:51:34;;;;;;;15.07;6.45;;;5.40;99.90;;;;;;5045932;28;20387;-46
2022/09/28 00:54:02;;;;;;;17.60;7.28;;;5.30;99.90;;;;;;5046259;28;20554;-46
2022/09/28 00:56:30;;;;;;;17.73;7.18;;;5.20;99.90;;;;;;5046036;28;20526;-47
2022/09/28 00:58:58;;;;;;;15.88;7.25;;;5.10;99.90;;;;;;5046650;28;20053;-47
2022/09/28 01:01:25;;;;;;;19.52;6.85;;;5.00;99.90;;;;;;5046538;28;20045;-45
2022/09/28 01:03:51;;;;;;;33.88;7.47;;;5.20;99.90;;;;;;5045158;28;20053;-46
2022/09/28 01:06:22;;;;;;;30.58;6.57;;;5.10;99.90;;;;;;5045983;28;20478;-45
2022/09/28 01:08:50;;;;;;;85.55;9.32;;;4.80;99.90;;;;;;5045647;28;20491;-45
2022/09/28 01:11:20;;;;;;;90.25;8.07;;;5.00;99.90;;;;;;5046136;28;20053;-46
2022/09/28 01:13:48;;;;;;;22.13;6.10;;;5.00;99.90;;;;;;5045776;28;20552;-47
2022/09/28 01:16:26;;;;;;;25.52;4.93;;;4.80;99.90;;;;;;5045817;28;20047;-45
2022/09/28 01:19:20;;;;;;;32.88;6.13;;;4.90;99.90;;;;;;5045654;28;20083;-46
2022/09/28 01:21:51;;;;;;;97.93;7.82;;;4.80;99.90;;;;;;5045649;28;20041;-46
2022/09/28 01:24:42;;;;;;;76.93;7.63;;;4.80;99.90;;;;;;5045457;28;20041;-46
2022/09/28 01:27:25;;;;;;;57.92;6.85;;;4.80;99.90;;;;;;5044422;28;20382;-44
2022/09/28 01:30:07;;;;;;;70.93;7.28;;;4.70;99.90;;;;;;5045472;28;20041;-49
2022/09/28 01:33:01;;;;;;;64.38;7.80;;;4.70;99.90;;;;;;5047603;28;20049;-47
2022/09/28 01:35:47;;;;;;;33.95;8.02;;;4.60;99.90;;;;;;5050342;28;20045;-46
2022/09/28 01:38:18;;;;;;;82.13;9.25;;;4.50;99.90;;;;;;5050050;28;20468;-46
2022/09/28 01:40:46;;;;;;;126.65;9.73;;;4.40;99.90;;;;;;5046513;28;20390;-45
2022/09/28 01:43:23;;;;;;;80.32;10.90;;;4.50;99.90;;;;;;5049587;28;20124;-47
2022/09/28 01:45:59;;;;;;;48.05;9.02;;;4.50;99.90;;;;;;5049153;28;20482;-46
2022/09/28 01:48:49;;;;;;;34.88;9.73;;;4.50;99.90;;;;;;5049070;28;20439;-46
2022/09/28 01:51:40;;;;;;;25.42;8.57;;;4.40;99.90;;;;;;5049157;28;20047;-44
2022/09/28 01:54:11;;;;;;;25.65;9.35;;;4.40;99.90;;;;;;5048479;28;20098;-46
2022/09/28 01:56:45;;;;;;;29.90;10.32;;;4.40;99.90;;;;;;5048099;28;20056;-47
2022/09/28 01:59:22;;;;;;;22.77;7.72;;;4.40;99.90;;;;;;5048173;28;20414;-49
2022/09/28 02:02:08;;;;;;;47.35;5.43;;;4.30;99.90;;;;;;5049284;28;20060;-48
2022/09/28 02:04:59;;;;;;;142.43;8.70;;;4.30;99.90;;;;;;5050285;28;20041;-46
2022/09/28 02:07:53;;;;;;;72.28;6.32;;;4.30;99.90;;;;;;5049015;28;20433;-45
2022/09/28 02:10:24;;;;;;;100.35;7.57;;;4.20;99.90;;;;;;5022406;28;20088;-44
2022/09/28 02:13:07;;;;;;;126.32;8.88;;;4.20;99.90;;;;;;5049023;28;20076;-45
2022/09/28 02:15:39;;;;;;;106.70;10.93;;;4.20;99.90;;;;;;5048681;28;20055;-45
2022/09/28 02:18:04;;;;;;;68.75;7.25;;;4.10;99.90;;;;;;5048965;28;20120;-45
2022/09/28 02:20:33;;;;;;;83.60;8.13;;;4.10;99.90;;;;;;5048636;28;20059;-46
2022/09/28 02:23:00;;;;;;;51.38;6.88;;;4.10;99.90;;;;;;5048283;28;20049;-46
2022/09/28 02:25:43;;;;;;;67.25;7.78;;;4.10;99.90;;;;;;5048422;28;20036;-47
2022/09/28 02:28:12;;;;;;;84.78;10.10;;;4.00;99.90;;;;;;5048667;28;20037;-47
2022/09/28 02:30:40;;;;;;;39.83;6.50;;;4.00;99.90;;;;;;5048372;28;20044;-47
2022/09/28 02:33:14;;;;;;;26.63;5.22;;;4.00;99.90;;;;;;5048123;28;20045;-45
2022/09/28 02:35:41;;;;;;;23.83;5.10;;;4.10;99.90;;;;;;5048630;28;20045;-46
2022/09/28 02:38:09;;;;;;;21.60;4.70;;;4.10;99.90;;;;;;5048244;28;20510;-45
2022/09/28 02:40:36;;;;;;;23.50;5.80;;;4.10;99.90;;;;;;5048641;28;20037;-47
2022/09/28 02:43:29;;;;;;;24.55;5.68;;;4.10;99.90;;;;;;5048395;28;20056;-46
2022/09/28 02:46:00;;;;;;;35.17;6.55;;;4.10;99.90;;;;;;5049285;28;20118;-45
2022/09/28 02:48:53;;;;;;;46.20;8.00;;;4.10;99.90;;;;;;5048959;28;20037;-46
2022/09/28 02:51:40;;;;;;;25.52;7.15;;;4.20;99.90;;;;;;5049662;28;20044;-52
2022/09/28 02:54:20;;;;;;;42.92;7.18;;;4.20;99.90;;;;;;5048307;28;20045;-47
2022/09/28 02:57:27;;;;;;;29.45;6.57;;;4.30;99.90;;;;;;5048184;28;20080;-48
2022/09/28 03:00:17;;;;;;;16.35;6.50;;;4.30;99.90;;;;;;5016030;28;20514;-50
2022/09/28 03:03:06;;;;;;;18.88;6.45;;;4.40;99.90;;;;;;5048946;28;20143;-47
2022/09/28 03:05:46;;;;;;;16.85;6.88;;;4.40;99.90;;;;;;5047820;28;20064;-45
2022/09/28 03:08:24;;;;;;;16.70;6.53;;;4.50;99.90;;;;;;5048106;28;20041;-47
2022/09/28 03:10:57;;;;;;;18.80;6.88;;;4.50;99.90;;;;;;5047800;28;20061;-47
2022/09/28 03:13:24;;;;;;;32.60;9.27;;;4.60;99.90;;;;;;5048233;28;20057;-46
2022/09/28 03:15:50;;;;;;;40.45;10.43;;;4.60;99.90;;;;;;5047829;28;20116;-47
2022/09/28 03:18:16;;;;;;;34.45;10.40;;;4.70;99.90;;;;;;5047915;28;20501;-47
2022/09/28 03:20:42;;;;;;;34.45;9.32;;;4.70;99.90;;;;;;5048178;28;20494;-46
2022/09/28 03:23:07;;;;;;;27.45;9.40;;;4.80;99.90;;;;;;5047822;28;20394;-46
2022/09/28 03:25:33;;;;;;;36.53;10.88;;;4.80;99.90;;;;;;5047591;28;20040;-48
2022/09/28 03:27:59;;;;;;;93.45;16.13;;;4.80;99.90;;;;;;5047321;28;20494;-46
2022/09/28 03:30:24;;;;;;;62.55;13.75;;;4.90;99.90;;;;;;5048030;28;20041;-54
2022/09/28 03:33:01;;;;;;;69.85;14.50;;;4.90;99.90;;;;;;5047606;28;20179;-50
2022/09/28 03:35:26;;;;;;;99.40;18.27;;;5.00;99.90;;;;;;5047998;28;20053;-46
2022/09/28 03:37:56;;;;;;;83.65;17.63;;;5.00;99.90;;;;;;5045609;28;20051;-55
2022/09/28 03:40:21;;;;;;;143.27;20.00;;;5.10;99.90;;;;;;5046798;28;20041;-55
2022/09/28 03:42:47;;;;;;;96.20;17.98;;;5.10;99.90;;;;;;5046922;28;20540;-53
2022/09/28 03:45:13;;;;;;;68.22;15.68;;;5.20;99.90;;;;;;5047253;28;20045;-54
2022/09/28 03:47:38;;;;;;;196.88;24.35;;;5.20;99.90;;;;;;5047107;28;20076;-54
2022/09/28 03:50:05;;;;;;;115.65;21.13;;;5.50;99.90;;;;;;5045872;28;20052;-54
2022/09/28 03:52:31;;;;;;;173.15;23.92;;;5.30;99.90;;;;;;5047420;28;20383;-52
2022/09/28 03:54:57;;;;;;;108.53;20.75;;;5.40;99.90;;;;;;5045894;28;20068;-48
2022/09/28 03:57:22;;;;;;;119.28;20.63;;;5.40;99.90;;;;;;5045893;28;20063;-48
2022/09/28 03:59:48;;;;;;;125.95;22.30;;;5.40;99.90;;;;;;5028888;28;20374;-46
2022/09/28 04:02:14;;;;;;;109.32;21.17;;;5.50;99.90;;;;;;5047128;28;20048;-50
2022/09/28 04:04:39;;;;;;;250.48;31.33;;;5.60;99.90;;;;;;5046531;28;20115;-49
2022/09/28 04:07:05;;;;;;;127.22;22.80;;;5.60;99.90;;;;;;5046506;28;20124;-47
2022/09/28 04:09:30;;;;;;;138.20;22.35;;;5.60;99.90;;;;;;5047806;28;20072;-55
2022/09/28 04:11:56;;;;;;;157.93;24.85;;;5.70;99.90;;;;;;5046340;28;20092;-44
2022/09/28 04:14:22;;;;;;;121.13;21.75;;;5.70;99.90;;;;;;5046889;28;20072;-45
2022/09/28 04:16:47;;;;;;;230.98;30.42;;;5.70;99.90;;;;;;5047003;28;20074;-46
2022/09/28 04:19:14;;;;;;;160.68;25.15;;;5.80;99.90;;;;;;5046713;28;20041;-44
2022/09/28 04:21:40;;;;;;;263.75;34.45;;;5.80;99.90;;;;;;5046990;28;20041;-45
2022/09/28 04:24:05;;;;;;;238.30;30.73;;;6.70;99.90;;;;;;5046181;28;20048;-46
2022/09/28 04:26:31;;;;;;;190.63;26.88;;;5.90;99.90;;;;;;5046730;28;20045;-45
2022/09/28 04:29:15;;;;;;;113.30;22.17;;;5.90;99.90;;;;;;5046508;28;20059;-46
2022/09/28 04:31:48;;;;;;;158.82;24.27;;;5.90;99.90;;;;;;5046271;28;20509;-45
2022/09/28 04:34:19;;;;;;;261.90;32.92;;;6.00;99.90;;;;;;5046076;28;20072;-44
2022/09/28 04:36:45;;;;;;;136.95;24.63;;;5.90;99.90;;;;;;5046526;28;20151;-44
2022/09/28 04:39:13;;;;;;;171.27;27.13;;;5.90;99.90;;;;;;5046811;28;20616;-46
2022/09/28 04:41:39;;;;;;;212.57;27.85;;;6.00;99.90;;;;;;5046457;28;20060;-44
2022/09/28 04:44:05;;;;;;;245.32;28.95;;;5.90;99.90;;;;;;5046084;28;20053;-44
2022/09/28 04:46:31;;;;;;;217.25;28.55;;;6.00;99.90;;;;;;5046693;28;20037;-46
2022/09/28 04:48:56;;;;;;;198.52;28.88;;;6.00;99.90;;;;;;5046222;28;20048;-45
2022/09/28 04:51:22;;;;;;;196.57;27.23;;;6.00;99.90;;;;;;5046137;28;20041;-44
2022/09/28 04:53:48;;;;;;;116.88;21.85;;;6.00;99.90;;;;;;5046475;28;20041;-45
2022/09/28 04:56:15;;;;;;;172.00;26.75;;;6.00;99.90;;;;;;5046214;28;20055;-44
2022/09/28 04:58:41;;;;;;;157.13;24.58;;;6.00;99.90;;;;;;5046250;28;20497;-45
2022/09/28 05:01:10;;;;;;;159.02;24.30;;;6.00;99.90;;;;;;5045746;28;20138;-44
2022/09/28 05:03:36;;;;;;;123.28;23.48;;;6.00;99.90;;;;;;5045824;28;20090;-44
2022/09/28 05:06:03;;;;;;;221.85;28.33;;;6.00;99.90;;;;;;5045569;28;20487;-44
2022/09/28 05:08:29;;;;;;;219.13;29.02;;;6.00;99.90;;;;;;5045221;28;20486;-46
2022/09/28 05:11:06;;;;;;;173.65;26.70;;;6.00;99.90;;;;;;5045319;28;20053;-44
2022/09/28 05:13:39;;;;;;;234.02;32.90;;;6.00;99.90;;;;;;5046415;28;20052;-46
2022/09/28 05:16:05;;;;;;;114.07;24.55;;;6.00;99.90;;;;;;5046333;28;20080;-45
2022/09/28 05:18:31;;;;;;;157.35;25.90;;;6.00;99.90;;;;;;5046068;28;20088;-44
2022/09/28 05:20:56;;;;;;;136.52;23.45;;;6.00;99.90;;;;;;5045664;28;20371;-46
2022/09/28 05:23:22;;;;;;;121.47;24.00;;;6.00;99.90;;;;;;5045497;28;20076;-45
2022/09/28 05:25:48;;;;;;;148.45;27.65;;;6.00;99.90;;;;;;5045999;28;20041;-44
2022/09/28 05:28:18;;;;;;;106.93;22.52;;;6.00;99.90;;;;;;5045462;28;20041;-45
2022/09/28 05:30:43;;;;;;;170.95;27.60;;;6.00;99.90;;;;;;5043894;28;20392;-47
2022/09/28 05:33:09;;;;;;;85.70;22.65;;;6.60;99.90;;;;;;5045237;28;20060;-46
2022/09/28 05:35:35;;;;;;;157.68;25.42;;;6.00;99.90;;;;;;5045274;28;20053;-45
2022/09/28 05:38:04;;;;;;;113.53;22.98;;;6.00;99.90;;;;;;5044916;28;20044;-47
2022/09/28 05:40:30;;;;;;;294.17;32.85;;;6.00;99.90;;;;;;5045295;28;20044;-46
2022/09/28 05:43:00;;;;;;;173.48;26.30;;;6.80;99.90;;;;;;5043890;28;20044;-47
2022/09/28 05:45:27;;;;;;;241.15;30.00;;;5.90;99.90;;;;;;5045597;28;20045;-46
2022/09/28 05:47:53;;;;;;;235.90;30.67;;;5.90;99.90;;;;;;5043924;28;20044;-46
2022/09/28 05:50:19;;;;;;;222.38;27.52;;;6.00;99.90;;;;;;5043929;28;20095;-47
2022/09/28 05:52:45;;;;;;;121.20;22.73;;;5.90;99.90;;;;;;5046081;28;20041;-46
2022/09/28 05:55:12;;;;;;;200.95;27.98;;;6.00;99.90;;;;;;5045757;28;20040;-45
2022/09/28 05:57:38;;;;;;;112.85;22.55;;;6.00;99.90;;;;;;5045268;28;20087;-46
2022/09/28 06:00:07;;;;;;;339.58;37.38;;;5.90;99.90;;;;;;5044959;28;20076;-47
2022/09/28 06:02:33;;;;;;;131.13;22.50;;;5.90;99.90;;;;;;5043882;28;20157;-46
2022/09/28 06:04:59;;;;;;;128.95;20.20;;;5.90;99.90;;;;;;5045147;28;20120;-46
2022/09/28 06:07:25;;;;;;;248.75;25.17;;;6.00;99.90;;;;;;5045017;28;20041;-47
2022/09/28 06:09:50;;;;;;;262.63;27.42;;;5.90;99.90;;;;;;5045166;28;20052;-45
2022/09/28 06:12:16;;;;;;;226.88;25.15;;;6.10;99.90;;;;;;5045937;28;20469;-46
2022/09/28 06:14:42;;;;;;;121.22;18.17;;;6.00;99.90;;;;;;5045309;28;20045;-47
2022/09/28 06:17:07;;;;;;;239.55;27.00;;;6.00;99.90;;;;;;5044597;28;20083;-46
2022/09/28 06:19:33;;;;;;;152.20;21.65;;;6.00;99.90;;;;;;5048198;28;20103;-46
2022/09/28 06:21:58;;;;;;;226.68;25.75;;;5.90;99.90;;;;;;5048121;28;20052;-47
2022/09/28 06:24:24;;;;;;;153.02;17.83;;;5.90;99.90;;;;;;5047933;28;20041;-45
2022/09/28 06:26:50;;;;;;;164.05;20.50;;;5.90;99.90;;;;;;5047841;28;20116;-45
2022/09/28 06:29:17;;;;;;;144.10;18.75;;;5.90;99.90;;;;;;5047971;28;20053;-44
2022/09/28 06:31:43;;;;;;;93.78;15.20;;;5.90;99.90;;;;;;5048572;28;20126;-47
2022/09/28 06:34:10;;;;;;;193.88;24.90;;;5.90;99.90;;;;;;5048347;28;20087;-46
2022/09/28 06:36:36;;;;;;;98.50;17.27;;;5.90;99.90;;;;;;5048415;28;20052;-44
2022/09/28 06:39:01;;;;;;;115.18;17.42;;;5.90;99.90;;;;;;5048239;28;20394;-47
2022/09/28 06:41:27;;;;;;;106.15;18.83;;;6.90;99.90;;;;;;5047804;28;20471;-45
2022/09/28 06:43:52;;;;;;;115.85;16.30;;;5.90;99.90;;;;;;5048687;28;20297;-46
2022/09/28 06:46:19;;;;;;;112.40;18.63;;;5.90;99.90;;;;;;5048928;28;20037;-48
2022/09/28 06:48:45;;;;;;;117.88;18.48;;;5.90;99.90;;;;;;5049689;28;20052;-44
2022/09/28 06:51:11;;;;;;;111.75;17.27;;;5.90;99.90;;;;;;5047605;28;20390;-45
2022/09/28 06:53:36;;;;;;;121.72;18.27;;;6.90;99.90;;;;;;5048438;28;20272;-45
2022/09/28 06:56:03;;;;;;;187.90;24.70;;;5.90;99.90;;;;;;5048655;28;20052;-44
2022/09/28 06:58:30;;;;;;;192.57;24.20;;;5.90;99.90;;;;;;5048122;28;20060;-45
2022/09/28 07:00:58;;;;;;;62.88;14.93;;;6.00;99.90;;;;;;5048718;28;20056;-44
2022/09/28 07:03:24;;;;;;;45.17;13.80;;;6.00;99.90;;;;;;5048319;28;20053;-45
2022/09/28 07:05:52;;;;;;;62.65;14.05;;;6.00;99.90;;;;;;5048101;28;20498;-45
2022/09/28 07:08:20;;;;;;;83.53;17.40;;;6.00;99.90;;;;;;5047922;28;20045;-45
2022/09/28 07:10:47;;;;;;;187.82;25.40;;;5.90;99.90;;;;;;5047574;28;20065;-48
2022/09/28 07:13:15;;;;;;;110.22;18.98;;;5.90;99.90;;;;;;5046376;28;20128;-45
2022/09/28 07:15:42;;;;;;;65.78;15.57;;;5.90;99.90;;;;;;5048176;28;20056;-51
2022/09/28 07:18:09;;;;;;;79.05;17.52;;;5.90;99.90;;;;;;5047133;28;20047;-45
2022/09/28 07:20:36;;;;;;;46.97;13.45;;;5.80;99.90;;;;;;5046497;28;20052;-46
2022/09/28 07:23:05;;;;;;;30.70;12.77;;;5.70;99.90;;;;;;5047989;28;20049;-46
2022/09/28 07:25:31;;;;;;;40.72;13.15;;;5.90;99.90;;;;;;5047024;28;20534;-45
2022/09/28 07:28:01;;;;;;;81.72;16.83;;;5.90;99.90;;;;;;5047273;28;20041;-44
2022/09/28 07:30:33;;;;;;;81.68;14.05;;;6.00;99.90;;;;;;5046858;28;20052;-44
2022/09/28 07:33:00;;;;;;;238.82;27.05;;;6.10;99.90;;;;;;5046912;28;20079;-45
2022/09/28 07:35:27;;;;;;;190.55;20.75;;;7.10;99.90;;;;;;5046928;28;20041;-47
2022/09/28 07:38:18;;;;;;;200.60;23.10;;;6.40;99.90;;;;;;5047879;28;20049;-45
2022/09/28 07:43:28;;;;;;;202.05;22.05;;;6.60;99.90;;;;;;5046821;28;20055;-45
2022/09/28 07:45:54;;;;;;;170.68;17.15;;;6.90;99.90;;;;;;5046137;28;20045;-43
2022/09/28 07:48:21;;;;;;;99.35;16.13;;;7.00;99.90;;;;;;5040098;28;20082;-44
2022/09/28 07:50:55;;;;;;;325.10;32.65;;;7.20;99.90;;;;;;5036232;28;20037;-44
2022/09/28 07:53:23;;;;;;;340.08;32.22;;;7.40;99.90;;;;;;5042359;28;20059;-40
2022/09/28 07:55:53;;;;;;;187.63;20.70;;;7.40;99.90;;;;;;5043221;28;20106;-39
2022/09/28 07:58:19;;;;;;;136.70;17.15;;;7.40;99.90;;;;;;5044520;28;20563;-35
2022/09/28 08:00:47;;;;;;;141.15;18.55;;;7.50;99.90;;;;;;5045139;28;20048;-35
2022/09/28 08:03:14;;;;;;;180.13;23.98;;;7.10;99.90;;;;;;5044280;28;20120;-39
2022/09/28 08:05:41;;;;;;;350.58;33.75;;;7.40;99.90;;;;;;5043898;28;20052;-38
2022/09/28 08:08:07;;;;;;;178.43;22.80;;;7.40;99.90;;;;;;5044840;28;20040;-40
2022/09/28 08:10:33;;;;;;;37.58;12.68;;;7.30;99.90;;;;;;5045107;28;20084;-40
2022/09/28 08:13:02;;;;;;;169.68;22.63;;;7.50;99.90;;;;;;5045646;28;20717;-38
2022/09/28 08:15:32;;;;;;;174.02;22.15;;;7.60;99.90;;;;;;5044904;28;20044;-40
2022/09/28 08:17:58;;;;;;;128.23;18.65;;;7.70;99.90;;;;;;5045433;28;20075;-37
2022/09/28 08:23:10;;;;;;;58.97;13.35;;;7.90;99.90;;;;;;5044477;28;20131;-38
2022/09/28 08:25:36;;;;;;;141.18;17.83;;;8.20;99.90;;;;;;5043966;28;20466;-38
2022/09/28 08:28:03;;;;;;;133.00;20.08;;;8.50;99.90;;;;;;5045002;28;20037;-39
2022/09/28 08:30:30;;;;;;;238.82;29.48;;;8.60;99.90;;;;;;5045153;28;20049;-40
2022/09/28 08:32:56;;;;;;;94.18;14.30;;;9.90;99.90;;;;;;5044198;28;20195;-40
2022/09/28 08:35:24;;;;;;;56.80;12.40;;;9.10;99.90;;;;;;5043764;28;20144;-41
2022/09/28 08:37:53;;;;;;;259.85;27.17;;;9.70;99.90;;;;;;5043096;28;20505;-40
2022/09/28 08:40:24;;;;;;;31.27;10.65;;;9.90;99.90;;;;;;5043738;28;20075;-40
2022/09/28 08:42:53;;;;;;;26.60;11.20;;;9.70;99.90;;;;;;5045155;28;20049;-38
2022/09/28 08:45:28;;;;;;;25.38;10.60;;;10.20;99.90;;;;;;5044749;28;20041;-38
2022/09/28 08:51:32;;;;;;;30.88;10.82;;;11.30;99.90;;;;;;5043873;28;20126;-37
2022/09/28 08:54:02;;;;;;;40.33;11.25;;;11.30;99.90;;;;;;5031071;28;20470;-37
2022/09/28 08:56:49;;;;;;;17.92;9.88;;;11.90;99.90;;;;;;5044156;28;20051;-37
2022/09/28 08:59:27;;;;;;;21.25;9.02;;;11.80;99.90;;;;;;5043806;28;20479;-37
2022/09/28 09:01:59;;;;;;;14.63;8.63;;;12.70;99.90;;;;;;5043881;28;20040;-43
2022/09/28 09:04:25;;;;;;;14.65;8.63;;;12.10;99.90;;;;;;5043620;28;20052;-40
2022/09/28 09:07:36;;;;;;;10.27;7.53;;;12.10;99.90;;;;;;5044355;28;20049;-39
2022/09/28 09:10:11;;;;;;;14.63;8.05;;;12.30;99.90;;;;;;5043692;28;20846;-39
2022/09/28 09:13:03;;;;;;;9.48;7.10;;;12.40;99.90;;;;;;5043907;28;20049;-40
2022/09/28 09:16:16;;;;;;;7.63;6.13;;;12.50;99.90;;;;;;5043634;28;20044;-45
2022/09/28 09:18:51;;;;;;;6.68;5.03;;;12.50;99.90;;;;;;5039012;28;20085;-48
2022/09/28 09:21:47;;;;;;;9.63;5.53;;;12.20;99.90;;;;;;5044784;28;20045;-43
2022/09/28 09:24:27;;;;;;;8.25;5.28;;;12.10;99.90;;;;;;5044952;28;20052;-43
2022/09/28 09:27:13;;;;;;;10.40;5.45;;;12.10;99.90;;;;;;5044286;28;20041;-39
2022/09/28 09:29:58;;;;;;;8.27;5.22;;;12.30;99.90;;;;;;5044116;28;20057;-40
2022/09/28 09:32:45;;;;;;;7.13;5.75;;;12.50;99.90;;;;;;5042957;28;20049;-38
2022/09/28 09:35:21;;;;;;;6.43;5.13;;;13.00;99.90;;;;;;5043309;28;20383;-40
2022/09/28 09:38:18;;;;;;;5.60;4.82;;;13.20;99.90;;;;;;5041686;28;20049;-39
2022/09/28 09:40:52;;;;;;;4.60;4.05;;;13.10;99.90;;;;;;5041873;28;20049;-40
2022/09/28 09:43:46;;;;;;;5.60;4.40;;;13.10;99.90;;;;;;5025452;28;20044;-42
2022/09/28 09:46:14;;;;;;;5.38;4.05;;;13.10;99.90;;;;;;5043337;28;20549;-39
2022/09/28 09:48:56;;;;;;;6.32;3.78;;;11.40;99.90;;;;;;5043337;28;20117;-38
2022/09/28 09:51:45;;;;;;;5.20;4.47;;;13.00;99.90;;;;;;5043071;28;20080;-40
2022/09/28 09:54:25;;;;;;;4.93;4.28;;;13.10;99.90;;;;;;5046492;28;20049;-39
2022/09/28 09:56:58;;;;;;;5.32;4.32;;;13.10;99.90;;;;;;5047363;28;20986;-40
2022/09/28 09:59:32;;;;;;;4.53;3.33;;;12.70;99.90;;;;;;5047903;28;20285;-41
2022/09/28 10:02:00;;;;;;;4.85;3.92;;;13.00;99.90;;;;;;5046943;28;20362;-40
2022/09/28 10:04:35;;;;;;;5.18;4.55;;;13.00;99.90;;;;;;5048009;28;20104;-41
2022/09/28 10:07:04;;;;;;;5.07;4.22;;;13.10;99.90;;;;;;5047383;28;20438;-40
2022/09/28 10:09:44;;;;;;;5.25;4.07;;;13.20;99.90;;;;;;5047628;28;20052;-42
2022/09/28 10:12:16;;;;;;;6.15;4.03;;;13.70;99.90;;;;;;5047165;28;20067;-43
2022/09/28 10:14:42;;;;;;;5.80;4.50;;;13.70;99.90;;;;;;5046838;28;20541;-43
2022/09/28 10:17:12;;;;;;;4.68;3.55;;;13.80;99.90;;;;;;5046975;28;20045;-44
2022/09/28 10:19:38;;;;;;;9.27;4.05;;;14.00;99.90;;;;;;5046076;28;20049;-41
2022/09/28 10:22:05;;;;;;;5.45;3.55;;;14.20;99.90;;;;;;5047171;28;20612;-41
2022/09/28 10:24:35;;;;;;;4.25;3.50;;;14.40;99.90;;;;;;5046607;28;20083;-40
2022/09/28 10:27:15;;;;;;;5.35;4.05;;;14.30;99.90;;;;;;5047322;28;20064;-39
2022/09/28 10:29:49;;;;;;;5.20;4.20;;;14.20;99.90;;;;;;5046986;28;20757;-38
2022/09/28 10:32:24;;;;;;;5.45;4.53;;;14.00;99.90;;;;;;5046650;28;20037;-40
2022/09/28 10:34:51;;;;;;;5.93;4.25;;;14.10;99.90;;;;;;5047514;28;20118;-41
2022/09/28 10:37:18;;;;;;;4.57;4.00;;;14.10;99.90;;;;;;5046637;28;20045;-40
2022/09/28 10:39:52;;;;;;;4.72;3.78;;;13.90;99.90;;;;;;5046991;28;20049;-39
2022/09/28 10:42:25;;;;;;;5.53;3.25;;;13.80;99.90;;;;;;5046854;28;20053;-38
2022/09/28 10:44:54;;;;;;;4.63;3.63;;;13.80;99.90;;;;;;5046831;28;20044;-44
2022/09/28 10:47:23;;;;;;;4.85;4.30;;;13.80;99.90;;;;;;5046234;28;20049;-41
2022/09/28 10:49:50;;;;;;;7.00;3.90;;;14.00;99.90;;;;;;5046345;28;20072;-41
2022/09/28 10:52:36;;;;;;;4.13;3.38;;;13.80;99.90;;;;;;5045819;28;20575;-40
2022/09/28 10:55:26;;;;;;;5.93;4.07;;;13.90;99.90;;;;;;5046828;28;20041;-39
2022/09/28 10:57:52;;;;;;;4.10;3.33;;;13.90;99.90;;;;;;5046208;28;20433;-44
2022/09/28 11:00:39;;;;;;;4.75;3.30;;;13.80;99.90;;;;;;5046447;28;20045;-40
2022/09/28 11:03:16;;;;;;;2.97;1.83;;;14.00;99.90;;;;;;5046386;28;20055;-41
2022/09/28 11:05:51;;;;;;;3.13;1.65;;;13.90;99.90;;;;;;5046537;28;20172;-40
2022/09/28 11:08:21;;;;;;;3.20;1.67;;;13.70;99.90;;;;;;5045987;28;20044;-39
2022/09/28 11:10:47;;;;;;;3.03;1.45;;;13.50;99.90;;;;;;5045763;28;20099;-43
2022/09/28 11:13:13;;;;;;;3.25;1.67;;;13.50;99.90;;;;;;5045978;28;20048;-43
2022/09/28 11:15:42;;;;;;;3.88;1.67;;;13.70;99.90;;;;;;5046071;28;20077;-43
2022/09/28 11:18:24;;;;;;;4.78;1.45;;;13.60;99.90;;;;;;5046124;28;20055;-42
2022/09/28 11:20:50;;;;;;;4.13;2.30;;;13.60;99.90;;;;;;5045969;28;20040;-42
2022/09/28 11:23:32;;;;;;;5.78;2.25;;;13.50;99.90;;;;;;5045941;28;20603;-42
2022/09/28 11:26:03;;;;;;;5.05;1.95;;;13.50;99.90;;;;;;5043890;28;20098;-42
2022/09/28 11:28:32;;;;;;;2.65;1.65;;;13.40;99.90;;;;;;5045761;28;20577;-45
2022/09/28 11:30:58;;;;;;;3.88;2.45;;;13.20;99.90;;;;;;5045969;28;20072;-45
2022/09/28 11:33:31;;;;;;;3.33;2.47;;;13.40;99.90;;;;;;5044398;28;20446;-40
2022/09/28 11:36:16;;;;;;;;;;;13.50;99.90;;;;;;5045842;28;20119;-43
2022/09/28 11:39:01;;;;;;;2.88;2.30;;;13.40;99.90;;;;;;5043598;28;20530;-36
2022/09/28 11:41:39;;;;;;;2.85;1.50;;;13.50;99.90;;;;;;5046179;28;20040;-40
2022/09/28 11:44:33;;;;;;;3.72;1.10;;;13.50;99.90;;;;;;5045648;28;20053;-39
2022/09/28 11:47:28;;;;;;;3.97;1.55;;;13.30;99.90;;;;;;5045392;28;20045;-39
2022/09/28 11:50:13;;;;;;;1.83;0.70;;;13.40;99.90;;;;;;5022569;28;20136;-39
2022/09/28 11:52:54;;;;;;;1.88;1.00;;;13.30;99.90;;;;;;5045047;28;20048;-37
2022/09/28 11:55:20;;;;;;;3.07;1.30;;;13.10;99.90;;;;;;5045604;28;20486;-40
2022/09/28 11:57:52;;;;;;;4.32;1.00;;;13.00;99.90;;;;;;5045231;28;20048;-39
2022/09/28 12:00:23;;;;;;;1.80;1.10;;;13.10;99.90;;;;;;5043857;28;20051;-41
2022/09/28 12:03:02;;;;;;;2.22;1.40;;;13.20;99.90;;;;;;5041915;28;20183;-41
2022/09/28 12:05:54;;;;;;;2.65;1.83;;;13.30;99.90;;;;;;5026270;28;20118;-45
2022/09/28 12:08:33;;;;;;;3.45;1.67;;;13.40;99.90;;;;;;5009797;28;20151;-47
2022/09/28 12:11:19;;;;;;;3.78;2.22;;;13.40;99.90;;;;;;5044253;28;20122;-40
2022/09/28 12:13:48;;;;;;;3.00;1.90;;;13.40;99.90;;;;;;5044673;28;20555;-37
2022/09/28 12:16:23;;;;;;;3.42;1.92;;;13.40;99.90;;;;;;5044096;28;20048;-38
2022/09/28 12:18:55;;;;;;;3.90;2.40;;;13.30;99.90;;;;;;5042858;28;20427;-45
2022/09/28 12:21:27;;;;;;;3.67;2.20;;;13.40;99.90;;;;;;5045245;28;20604;-44
2022/09/28 12:23:59;;;;;;;3.08;2.28;;;13.30;99.90;;;;;;5046094;28;20127;-43
2022/09/28 12:26:28;;;;;;;5.95;2.33;;;13.40;99.90;;;;;;5046059;28;20517;-44
2022/09/28 12:28:59;;;;;;;3.67;2.10;;;13.60;99.90;;;;;;5045706;28;20061;-43
2022/09/28 12:31:32;;;;;;;3.83;2.17;;;13.60;99.90;;;;;;5046392;28;20041;-44
2022/09/28 12:33:59;;;;;;;2.85;1.70;;;13.70;99.90;;;;;;5045361;28;20643;-43
2022/09/28 12:36:40;;;;;;;2.40;1.23;;;13.70;99.90;;;;;;5045820;28;20055;-44
2022/09/28 12:39:13;;;;;;;1.95;0.95;;;13.60;99.90;;;;;;5045658;28;20044;-44
2022/09/28 12:41:57;;;;;;;3.15;1.40;;;13.60;99.90;;;;;;5045597;28;20040;-45
2022/09/28 12:44:35;;;;;;;2.83;1.10;;;13.50;99.90;;;;;;5045227;28;20044;-44
2022/09/28 12:47:13;;;;;;;2.15;0.70;;;13.50;99.90;;;;;;5045597;28;20123;-43
2022/09/28 12:50:12;;;;;;;3.03;1.25;;;13.40;99.90;;;;;;5045796;28;20044;-43
2022/09/28 12:52:40;;;;;;;3.92;1.90;;;13.30;99.90;;;;;;5045920;28;20128;-43
2022/09/28 12:55:15;;;;;;;2.50;1.85;;;13.30;99.90;;;;;;5046155;28;20040;-44
2022/09/28 12:58:10;;;;;;;3.95;1.67;;;13.30;99.90;;;;;;5045633;28;20049;-43
2022/09/28 13:00:48;;;;;;;1.60;0.98;;;13.40;99.90;;;;;;5040158;28;20052;-43
2022/09/28 13:03:31;;;;;;;5.82;1.73;;;13.40;99.90;;;;;;5046004;28;20045;-44
2022/09/28 13:06:15;;;;;;;2.58;1.38;;;13.40;99.90;;;;;;5045925;28;20356;-43
2022/09/28 13:09:05;;;;;;;2.75;1.27;;;13.50;99.90;;;;;;5046171;28;20036;-43
2022/09/28 13:11:40;;;;;;;2.20;1.40;;;13.50;99.90;;;;;;5045861;28;20053;-43
2022/09/28 13:14:36;;;;;;;3.17;1.02;;;13.40;99.90;;;;;;5045565;28;20041;-44
2022/09/28 13:17:34;;;;;;;2.63;1.23;;;13.30;99.90;;;;;;5046111;28;20115;-44